sensor_id;sensor_type;location;lat;lon;timestamp;P1;durP1;ratioP1;P2;durP2;ratioP2
26718;SDS011;14326;50.794;6.060;2024-03-08T00:02:34;37.90;;;19.55;;
26718;SDS011;14326;50.794;6.060;2024-03-08T00:05:01;41.17;;;20.17;;
26718;SDS011;14326;50.794;6.060;2024-03-08T00:07:28;38.53;;;19.92;;
26718;SDS011;14326;50.794;6.060;2024-03-08T00:09:56;40.25;;;20.35;;
26718;SDS011;14326;50.794;6.060;2024-03-08T00:12:22;41.63;;;19.20;;
26718;SDS011;14326;50.794;6.060;2024-03-08T00:14:51;41.42;;;20.17;;
26718;SDS011;14326;50.794;6.060;2024-03-08T00:17:17;43.47;;;20.98;;
26718;SDS011;14326;50.794;6.060;2024-03-08T00:19:44;41.22;;;19.85;;
26718;SDS011;14326;50.794;6.060;2024-03-08T00:22:11;40.35;;;21.17;;
26718;SDS011;14326;50.794;6.060;2024-03-08T00:24:37;39.42;;;20.40;;
26718;SDS011;14326;50.794;6.060;2024-03-08T00:27:05;44.97;;;21.42;;
26718;SDS011;14326;50.794;6.060;2024-03-08T00:29:32;37.53;;;19.10;;
26718;SDS011;14326;50.794;6.060;2024-03-08T00:31:59;44.22;;;21.65;;
26718;SDS011;14326;50.794;6.060;2024-03-08T00:34:26;38.40;;;20.90;;
26718;SDS011;14326;50.794;6.060;2024-03-08T00:36:53;40.10;;;21.35;;
26718;SDS011;14326;50.794;6.060;2024-03-08T00:39:19;41.05;;;21.77;;
26718;SDS011;14326;50.794;6.060;2024-03-08T00:41:47;43.22;;;20.33;;
26718;SDS011;14326;50.794;6.060;2024-03-08T00:44:15;39.30;;;20.95;;
26718;SDS011;14326;50.794;6.060;2024-03-08T00:46:41;42.08;;;20.95;;
26718;SDS011;14326;50.794;6.060;2024-03-08T00:49:08;46.63;;;22.45;;
26718;SDS011;14326;50.794;6.060;2024-03-08T00:51:35;43.15;;;21.40;;
26718;SDS011;14326;50.794;6.060;2024-03-08T00:54:01;42.55;;;21.35;;
26718;SDS011;14326;50.794;6.060;2024-03-08T00:56:28;40.08;;;21.25;;
26718;SDS011;14326;50.794;6.060;2024-03-08T00:58:54;39.30;;;20.67;;
26718;SDS011;14326;50.794;6.060;2024-03-08T01:01:23;42.90;;;22.75;;
26718;SDS011;14326;50.794;6.060;2024-03-08T01:03:50;44.25;;;20.80;;
26718;SDS011;14326;50.794;6.060;2024-03-08T01:06:17;43.15;;;21.17;;
26718;SDS011;14326;50.794;6.060;2024-03-08T01:08:43;40.00;;;21.88;;
26718;SDS011;14326;50.794;6.060;2024-03-08T01:11:12;42.92;;;22.10;;
26718;SDS011;14326;50.794;6.060;2024-03-08T01:13:39;42.90;;;21.90;;
26718;SDS011;14326;50.794;6.060;2024-03-08T01:16:06;44.15;;;21.63;;
26718;SDS011;14326;50.794;6.060;2024-03-08T01:18:34;42.70;;;21.73;;
26718;SDS011;14326;50.794;6.060;2024-03-08T01:21:01;41.80;;;22.25;;
26718;SDS011;14326;50.794;6.060;2024-03-08T01:23:28;43.28;;;22.33;;
26718;SDS011;14326;50.794;6.060;2024-03-08T01:25:54;45.70;;;22.52;;
26718;SDS011;14326;50.794;6.060;2024-03-08T01:28:23;47.22;;;23.77;;
26718;SDS011;14326;50.794;6.060;2024-03-08T01:30:49;42.53;;;21.38;;
26718;SDS011;14326;50.794;6.060;2024-03-08T01:33:20;43.97;;;21.58;;
26718;SDS011;14326;50.794;6.060;2024-03-08T01:35:49;44.05;;;22.50;;
26718;SDS011;14326;50.794;6.060;2024-03-08T01:38:15;43.38;;;21.25;;
26718;SDS011;14326;50.794;6.060;2024-03-08T01:40:42;44.85;;;22.30;;
26718;SDS011;14326;50.794;6.060;2024-03-08T01:43:18;44.33;;;21.90;;
26718;SDS011;14326;50.794;6.060;2024-03-08T01:45:45;42.15;;;21.45;;
26718;SDS011;14326;50.794;6.060;2024-03-08T01:48:12;45.78;;;22.52;;
26718;SDS011;14326;50.794;6.060;2024-03-08T01:50:40;44.22;;;21.25;;
26718;SDS011;14326;50.794;6.060;2024-03-08T01:53:08;44.08;;;21.63;;
26718;SDS011;14326;50.794;6.060;2024-03-08T01:55:36;46.80;;;22.50;;
26718;SDS011;14326;50.794;6.060;2024-03-08T01:58:05;42.90;;;22.50;;
26718;SDS011;14326;50.794;6.060;2024-03-08T02:00:32;43.22;;;22.73;;
26718;SDS011;14326;50.794;6.060;2024-03-08T02:03:01;47.45;;;23.58;;
26718;SDS011;14326;50.794;6.060;2024-03-08T02:05:27;46.67;;;23.25;;
26718;SDS011;14326;50.794;6.060;2024-03-08T02:07:54;44.63;;;22.77;;
26718;SDS011;14326;50.794;6.060;2024-03-08T02:10:23;43.83;;;21.70;;
26718;SDS011;14326;50.794;6.060;2024-03-08T02:12:49;44.38;;;22.88;;
26718;SDS011;14326;50.794;6.060;2024-03-08T02:15:17;43.70;;;22.50;;
26718;SDS011;14326;50.794;6.060;2024-03-08T02:17:44;45.25;;;23.15;;
26718;SDS011;14326;50.794;6.060;2024-03-08T02:20:11;46.83;;;21.35;;
26718;SDS011;14326;50.794;6.060;2024-03-08T02:22:39;48.10;;;22.00;;
26718;SDS011;14326;50.794;6.060;2024-03-08T02:25:06;45.38;;;22.55;;
26718;SDS011;14326;50.794;6.060;2024-03-08T02:27:34;44.13;;;22.00;;
26718;SDS011;14326;50.794;6.060;2024-03-08T02:30:01;44.45;;;23.77;;
26718;SDS011;14326;50.794;6.060;2024-03-08T02:32:27;46.90;;;22.70;;
26718;SDS011;14326;50.794;6.060;2024-03-08T02:34:56;43.38;;;21.90;;
26718;SDS011;14326;50.794;6.060;2024-03-08T02:37:24;43.72;;;22.45;;
26718;SDS011;14326;50.794;6.060;2024-03-08T02:39:53;43.70;;;22.35;;
26718;SDS011;14326;50.794;6.060;2024-03-08T02:42:20;41.13;;;20.88;;
26718;SDS011;14326;50.794;6.060;2024-03-08T02:44:46;41.88;;;21.60;;
26718;SDS011;14326;50.794;6.060;2024-03-08T02:47:13;43.88;;;21.63;;
26718;SDS011;14326;50.794;6.060;2024-03-08T02:49:40;47.70;;;23.75;;
26718;SDS011;14326;50.794;6.060;2024-03-08T02:52:07;46.10;;;23.48;;
26718;SDS011;14326;50.794;6.060;2024-03-08T02:54:33;42.92;;;20.98;;
26718;SDS011;14326;50.794;6.060;2024-03-08T02:57:03;41.22;;;21.35;;
26718;SDS011;14326;50.794;6.060;2024-03-08T02:59:32;47.53;;;22.45;;
26718;SDS011;14326;50.794;6.060;2024-03-08T03:01:59;47.03;;;24.10;;
26718;SDS011;14326;50.794;6.060;2024-03-08T03:04:26;41.92;;;21.13;;
26718;SDS011;14326;50.794;6.060;2024-03-08T03:06:52;53.65;;;23.20;;
26718;SDS011;14326;50.794;6.060;2024-03-08T03:09:19;40.78;;;21.60;;
26718;SDS011;14326;50.794;6.060;2024-03-08T03:11:49;38.77;;;17.90;;
26718;SDS011;14326;50.794;6.060;2024-03-08T03:14:17;47.22;;;23.52;;
26718;SDS011;14326;50.794;6.060;2024-03-08T03:16:44;49.08;;;22.33;;
26718;SDS011;14326;50.794;6.060;2024-03-08T03:19:11;53.30;;;23.02;;
26718;SDS011;14326;50.794;6.060;2024-03-08T03:21:37;44.17;;;21.80;;
26718;SDS011;14326;50.794;6.060;2024-03-08T03:24:04;46.33;;;22.58;;
26718;SDS011;14326;50.794;6.060;2024-03-08T03:26:35;48.97;;;24.35;;
26718;SDS011;14326;50.794;6.060;2024-03-08T03:29:02;50.63;;;23.83;;
26718;SDS011;14326;50.794;6.060;2024-03-08T03:31:32;44.42;;;21.95;;
26718;SDS011;14326;50.794;6.060;2024-03-08T03:33:59;45.75;;;23.30;;
26718;SDS011;14326;50.794;6.060;2024-03-08T03:36:28;42.35;;;22.13;;
26718;SDS011;14326;50.794;6.060;2024-03-08T03:38:54;44.92;;;21.40;;
26718;SDS011;14326;50.794;6.060;2024-03-08T03:41:30;48.42;;;21.73;;
26718;SDS011;14326;50.794;6.060;2024-03-08T03:43:56;45.80;;;22.13;;
26718;SDS011;14326;50.794;6.060;2024-03-08T03:46:24;49.60;;;24.42;;
26718;SDS011;14326;50.794;6.060;2024-03-08T03:48:53;46.53;;;21.67;;
26718;SDS011;14326;50.794;6.060;2024-03-08T03:51:20;47.33;;;23.02;;
26718;SDS011;14326;50.794;6.060;2024-03-08T03:53:47;47.38;;;22.33;;
26718;SDS011;14326;50.794;6.060;2024-03-08T03:56:13;43.90;;;21.65;;
26718;SDS011;14326;50.794;6.060;2024-03-08T03:58:40;47.78;;;23.27;;
26718;SDS011;14326;50.794;6.060;2024-03-08T04:01:07;49.05;;;21.60;;
26718;SDS011;14326;50.794;6.060;2024-03-08T04:03:34;48.42;;;22.35;;
26718;SDS011;14326;50.794;6.060;2024-03-08T04:06:04;46.80;;;22.15;;
26718;SDS011;14326;50.794;6.060;2024-03-08T04:08:31;46.20;;;22.88;;
26718;SDS011;14326;50.794;6.060;2024-03-08T04:10:59;52.25;;;24.00;;
26718;SDS011;14326;50.794;6.060;2024-03-08T04:13:26;44.97;;;21.98;;
26718;SDS011;14326;50.794;6.060;2024-03-08T04:15:52;50.22;;;22.88;;
26718;SDS011;14326;50.794;6.060;2024-03-08T04:18:19;49.50;;;23.65;;
26718;SDS011;14326;50.794;6.060;2024-03-08T04:20:46;49.80;;;23.75;;
26718;SDS011;14326;50.794;6.060;2024-03-08T04:23:14;44.58;;;22.15;;
26718;SDS011;14326;50.794;6.060;2024-03-08T04:25:41;49.80;;;23.20;;
26718;SDS011;14326;50.794;6.060;2024-03-08T04:28:08;49.10;;;23.48;;
26718;SDS011;14326;50.794;6.060;2024-03-08T04:30:36;51.42;;;23.05;;
26718;SDS011;14326;50.794;6.060;2024-03-08T04:33:04;51.15;;;23.70;;
26718;SDS011;14326;50.794;6.060;2024-03-08T04:35:31;47.97;;;22.77;;
26718;SDS011;14326;50.794;6.060;2024-03-08T04:37:58;50.60;;;25.23;;
26718;SDS011;14326;50.794;6.060;2024-03-08T04:40:26;48.35;;;22.95;;
26718;SDS011;14326;50.794;6.060;2024-03-08T04:42:52;49.00;;;23.70;;
26718;SDS011;14326;50.794;6.060;2024-03-08T04:45:19;56.30;;;25.15;;
26718;SDS011;14326;50.794;6.060;2024-03-08T04:47:46;49.22;;;24.40;;
26718;SDS011;14326;50.794;6.060;2024-03-08T04:50:13;53.45;;;22.60;;
26718;SDS011;14326;50.794;6.060;2024-03-08T04:52:40;52.97;;;23.77;;
26718;SDS011;14326;50.794;6.060;2024-03-08T04:55:06;49.90;;;22.33;;
26718;SDS011;14326;50.794;6.060;2024-03-08T04:57:34;47.72;;;22.55;;
26718;SDS011;14326;50.794;6.060;2024-03-08T05:00:01;53.65;;;24.42;;
26718;SDS011;14326;50.794;6.060;2024-03-08T05:02:29;53.08;;;23.23;;
26718;SDS011;14326;50.794;6.060;2024-03-08T05:04:56;54.72;;;22.60;;
26718;SDS011;14326;50.794;6.060;2024-03-08T05:07:22;47.75;;;21.17;;
26718;SDS011;14326;50.794;6.060;2024-03-08T05:09:49;47.60;;;22.83;;
26718;SDS011;14326;50.794;6.060;2024-03-08T05:12:17;46.33;;;21.60;;
26718;SDS011;14326;50.794;6.060;2024-03-08T05:14:45;48.80;;;22.88;;
26718;SDS011;14326;50.794;6.060;2024-03-08T05:17:14;44.08;;;22.73;;
26718;SDS011;14326;50.794;6.060;2024-03-08T05:19:41;50.83;;;23.92;;
26718;SDS011;14326;50.794;6.060;2024-03-08T05:22:07;49.92;;;21.52;;
26718;SDS011;14326;50.794;6.060;2024-03-08T05:24:34;50.60;;;23.38;;
26718;SDS011;14326;50.794;6.060;2024-03-08T05:27:01;48.25;;;21.83;;
26718;SDS011;14326;50.794;6.060;2024-03-08T05:29:28;42.83;;;20.50;;
26718;SDS011;14326;50.794;6.060;2024-03-08T05:31:56;55.15;;;23.05;;
26718;SDS011;14326;50.794;6.060;2024-03-08T05:34:23;46.63;;;21.65;;
26718;SDS011;14326;50.794;6.060;2024-03-08T05:36:51;52.42;;;22.38;;
26718;SDS011;14326;50.794;6.060;2024-03-08T05:39:19;51.88;;;23.60;;
26718;SDS011;14326;50.794;6.060;2024-03-08T05:41:46;48.17;;;22.98;;
26718;SDS011;14326;50.794;6.060;2024-03-08T05:44:13;45.35;;;21.90;;
26718;SDS011;14326;50.794;6.060;2024-03-08T05:46:39;51.90;;;23.52;;
26718;SDS011;14326;50.794;6.060;2024-03-08T05:49:07;49.60;;;22.38;;
26718;SDS011;14326;50.794;6.060;2024-03-08T05:51:35;49.05;;;21.80;;
26718;SDS011;14326;50.794;6.060;2024-03-08T05:54:04;47.60;;;22.48;;
26718;SDS011;14326;50.794;6.060;2024-03-08T05:56:31;50.28;;;23.50;;
26718;SDS011;14326;50.794;6.060;2024-03-08T05:58:58;48.88;;;21.67;;
26718;SDS011;14326;50.794;6.060;2024-03-08T06:01:25;50.28;;;23.33;;
26718;SDS011;14326;50.794;6.060;2024-03-08T06:03:52;42.65;;;21.73;;
26718;SDS011;14326;50.794;6.060;2024-03-08T06:06:22;51.10;;;22.05;;
26718;SDS011;14326;50.794;6.060;2024-03-08T06:08:49;48.67;;;21.85;;
26718;SDS011;14326;50.794;6.060;2024-03-08T06:11:16;47.28;;;20.90;;
26718;SDS011;14326;50.794;6.060;2024-03-08T06:13:44;48.00;;;22.70;;
26718;SDS011;14326;50.794;6.060;2024-03-08T06:16:11;50.45;;;23.58;;
26718;SDS011;14326;50.794;6.060;2024-03-08T06:18:37;46.65;;;20.90;;
26718;SDS011;14326;50.794;6.060;2024-03-08T06:21:04;49.08;;;21.80;;
26718;SDS011;14326;50.794;6.060;2024-03-08T06:23:33;50.90;;;22.20;;
26718;SDS011;14326;50.794;6.060;2024-03-08T06:26:03;45.60;;;21.85;;
26718;SDS011;14326;50.794;6.060;2024-03-08T06:28:30;45.85;;;20.40;;
26718;SDS011;14326;50.794;6.060;2024-03-08T06:30:57;49.25;;;22.27;;
26718;SDS011;14326;50.794;6.060;2024-03-08T06:33:24;50.65;;;22.65;;
26718;SDS011;14326;50.794;6.060;2024-03-08T06:35:51;55.28;;;23.52;;
26718;SDS011;14326;50.794;6.060;2024-03-08T06:38:18;50.30;;;22.88;;
26718;SDS011;14326;50.794;6.060;2024-03-08T06:40:47;47.40;;;20.63;;
26718;SDS011;14326;50.794;6.060;2024-03-08T06:43:14;46.17;;;20.98;;
26718;SDS011;14326;50.794;6.060;2024-03-08T06:45:41;52.47;;;22.98;;
26718;SDS011;14326;50.794;6.060;2024-03-08T06:48:13;48.13;;;21.33;;
26718;SDS011;14326;50.794;6.060;2024-03-08T06:50:40;50.15;;;22.42;;
26718;SDS011;14326;50.794;6.060;2024-03-08T06:53:06;44.85;;;22.20;;
26718;SDS011;14326;50.794;6.060;2024-03-08T06:55:33;44.45;;;20.48;;
26718;SDS011;14326;50.794;6.060;2024-03-08T06:58:01;49.67;;;20.13;;
26718;SDS011;14326;50.794;6.060;2024-03-08T07:00:28;46.92;;;21.52;;
26718;SDS011;14326;50.794;6.060;2024-03-08T07:02:55;44.28;;;19.52;;
26718;SDS011;14326;50.794;6.060;2024-03-08T07:05:26;51.45;;;21.40;;
26718;SDS011;14326;50.794;6.060;2024-03-08T07:07:52;42.00;;;20.25;;
26718;SDS011;14326;50.794;6.060;2024-03-08T07:10:19;43.90;;;20.00;;
26718;SDS011;14326;50.794;6.060;2024-03-08T07:12:48;40.08;;;19.27;;
26718;SDS011;14326;50.794;6.060;2024-03-08T07:15:16;40.67;;;20.02;;
26718;SDS011;14326;50.794;6.060;2024-03-08T07:17:44;32.25;;;13.05;;
26718;SDS011;14326;50.794;6.060;2024-03-08T07:20:11;39.60;;;19.88;;
26718;SDS011;14326;50.794;6.060;2024-03-08T07:22:40;38.65;;;18.42;;
26718;SDS011;14326;50.794;6.060;2024-03-08T07:25:07;39.03;;;19.25;;
26718;SDS011;14326;50.794;6.060;2024-03-08T07:27:46;36.70;;;17.73;;
26718;SDS011;14326;50.794;6.060;2024-03-08T07:30:13;40.60;;;18.98;;
26718;SDS011;14326;50.794;6.060;2024-03-08T07:33:02;43.28;;;19.48;;
26718;SDS011;14326;50.794;6.060;2024-03-08T07:35:29;38.63;;;18.23;;
26718;SDS011;14326;50.794;6.060;2024-03-08T07:37:57;44.13;;;19.10;;
26718;SDS011;14326;50.794;6.060;2024-03-08T07:40:25;43.20;;;18.92;;
26718;SDS011;14326;50.794;6.060;2024-03-08T07:42:51;40.97;;;19.42;;
26718;SDS011;14326;50.794;6.060;2024-03-08T07:45:18;37.33;;;18.05;;
26718;SDS011;14326;50.794;6.060;2024-03-08T07:47:47;40.95;;;18.77;;
26718;SDS011;14326;50.794;6.060;2024-03-08T07:50:15;40.45;;;19.42;;
26718;SDS011;14326;50.794;6.060;2024-03-08T07:52:41;45.22;;;19.48;;
26718;SDS011;14326;50.794;6.060;2024-03-08T07:55:09;43.58;;;18.90;;
26718;SDS011;14326;50.794;6.060;2024-03-08T07:57:36;36.97;;;17.60;;
26718;SDS011;14326;50.794;6.060;2024-03-08T08:00:04;41.97;;;18.90;;
26718;SDS011;14326;50.794;6.060;2024-03-08T08:02:33;40.67;;;19.45;;
26718;SDS011;14326;50.794;6.060;2024-03-08T08:05:00;39.50;;;19.08;;
26718;SDS011;14326;50.794;6.060;2024-03-08T08:07:28;42.83;;;19.08;;
26718;SDS011;14326;50.794;6.060;2024-03-08T08:09:55;40.63;;;18.92;;
26718;SDS011;14326;50.794;6.060;2024-03-08T08:12:21;40.20;;;18.83;;
26718;SDS011;14326;50.794;6.060;2024-03-08T08:14:48;37.30;;;17.17;;
26718;SDS011;14326;50.794;6.060;2024-03-08T08:17:15;38.78;;;17.48;;
26718;SDS011;14326;50.794;6.060;2024-03-08T08:19:42;43.05;;;20.30;;
26718;SDS011;14326;50.794;6.060;2024-03-08T08:22:08;38.33;;;18.25;;
26718;SDS011;14326;50.794;6.060;2024-03-08T08:24:36;38.00;;;17.98;;
26718;SDS011;14326;50.794;6.060;2024-03-08T08:27:03;40.42;;;18.45;;
26718;SDS011;14326;50.794;6.060;2024-03-08T08:29:30;38.83;;;18.23;;
26718;SDS011;14326;50.794;6.060;2024-03-08T08:31:58;40.38;;;18.90;;
26718;SDS011;14326;50.794;6.060;2024-03-08T08:34:25;45.97;;;19.00;;
26718;SDS011;14326;50.794;6.060;2024-03-08T08:36:52;46.42;;;19.23;;
26718;SDS011;14326;50.794;6.060;2024-03-08T08:39:19;43.30;;;19.88;;
26718;SDS011;14326;50.794;6.060;2024-03-08T08:41:49;41.78;;;19.77;;
26718;SDS011;14326;50.794;6.060;2024-03-08T08:44:15;40.88;;;19.48;;
26718;SDS011;14326;50.794;6.060;2024-03-08T08:46:42;39.70;;;19.30;;
26718;SDS011;14326;50.794;6.060;2024-03-08T08:49:08;42.40;;;19.67;;
26718;SDS011;14326;50.794;6.060;2024-03-08T08:51:35;39.13;;;19.40;;
26718;SDS011;14326;50.794;6.060;2024-03-08T08:54:02;41.30;;;18.15;;
26718;SDS011;14326;50.794;6.060;2024-03-08T08:56:29;38.53;;;17.60;;
26718;SDS011;14326;50.794;6.060;2024-03-08T08:58:57;38.90;;;17.88;;
26718;SDS011;14326;50.794;6.060;2024-03-08T09:01:23;35.45;;;17.73;;
26718;SDS011;14326;50.794;6.060;2024-03-08T09:03:50;44.08;;;18.38;;
26718;SDS011;14326;50.794;6.060;2024-03-08T09:06:17;40.80;;;17.80;;
26718;SDS011;14326;50.794;6.060;2024-03-08T09:08:43;37.05;;;17.08;;
26718;SDS011;14326;50.794;6.060;2024-03-08T09:11:11;36.85;;;17.40;;
26718;SDS011;14326;50.794;6.060;2024-03-08T09:13:37;37.92;;;16.73;;
26718;SDS011;14326;50.794;6.060;2024-03-08T09:16:05;38.47;;;17.52;;
26718;SDS011;14326;50.794;6.060;2024-03-08T09:18:32;38.67;;;17.38;;
26718;SDS011;14326;50.794;6.060;2024-03-08T09:21:00;33.72;;;15.98;;
26718;SDS011;14326;50.794;6.060;2024-03-08T09:23:26;34.72;;;15.77;;
26718;SDS011;14326;50.794;6.060;2024-03-08T09:25:55;40.45;;;17.85;;
26718;SDS011;14326;50.794;6.060;2024-03-08T09:28:22;37.40;;;16.52;;
26718;SDS011;14326;50.794;6.060;2024-03-08T09:30:49;37.40;;;16.80;;
26718;SDS011;14326;50.794;6.060;2024-03-08T09:33:17;38.30;;;17.98;;
26718;SDS011;14326;50.794;6.060;2024-03-08T09:35:44;35.25;;;16.77;;
26718;SDS011;14326;50.794;6.060;2024-03-08T09:38:12;36.05;;;17.63;;
26718;SDS011;14326;50.794;6.060;2024-03-08T09:40:38;34.95;;;16.02;;
26718;SDS011;14326;50.794;6.060;2024-03-08T09:43:07;40.28;;;18.52;;
26718;SDS011;14326;50.794;6.060;2024-03-08T09:45:35;35.08;;;16.85;;
26718;SDS011;14326;50.794;6.060;2024-03-08T09:48:04;34.97;;;16.15;;
26718;SDS011;14326;50.794;6.060;2024-03-08T09:50:35;30.73;;;14.18;;
26718;SDS011;14326;50.794;6.060;2024-03-08T09:53:02;37.65;;;16.92;;
26718;SDS011;14326;50.794;6.060;2024-03-08T09:55:29;33.92;;;16.45;;
26718;SDS011;14326;50.794;6.060;2024-03-08T09:57:59;35.28;;;16.23;;
26718;SDS011;14326;50.794;6.060;2024-03-08T10:00:48;38.30;;;18.55;;
26718;SDS011;14326;50.794;6.060;2024-03-08T10:03:15;37.25;;;17.77;;
26718;SDS011;14326;50.794;6.060;2024-03-08T10:05:43;35.13;;;16.38;;
26718;SDS011;14326;50.794;6.060;2024-03-08T10:08:10;36.60;;;17.10;;
26718;SDS011;14326;50.794;6.060;2024-03-08T10:10:37;38.88;;;16.98;;
26718;SDS011;14326;50.794;6.060;2024-03-08T10:13:05;34.03;;;17.05;;
26718;SDS011;14326;50.794;6.060;2024-03-08T10:15:32;36.88;;;14.85;;
26718;SDS011;14326;50.794;6.060;2024-03-08T10:17:59;33.80;;;15.27;;
26718;SDS011;14326;50.794;6.060;2024-03-08T10:20:27;34.08;;;15.35;;
26718;SDS011;14326;50.794;6.060;2024-03-08T10:22:59;32.47;;;15.43;;
26718;SDS011;14326;50.794;6.060;2024-03-08T10:25:28;32.30;;;15.52;;
26718;SDS011;14326;50.794;6.060;2024-03-08T10:27:55;33.72;;;14.20;;
26718;SDS011;14326;50.794;6.060;2024-03-08T10:30:22;31.38;;;14.55;;
26718;SDS011;14326;50.794;6.060;2024-03-08T10:32:49;29.48;;;14.10;;
26718;SDS011;14326;50.794;6.060;2024-03-08T10:35:17;28.85;;;13.48;;
26718;SDS011;14326;50.794;6.060;2024-03-08T10:37:46;28.63;;;12.52;;
26718;SDS011;14326;50.794;6.060;2024-03-08T10:40:17;31.25;;;13.60;;
26718;SDS011;14326;50.794;6.060;2024-03-08T10:42:51;28.30;;;13.45;;
26718;SDS011;14326;50.794;6.060;2024-03-08T10:45:22;30.92;;;13.27;;
26718;SDS011;14326;50.794;6.060;2024-03-08T10:48:01;32.00;;;14.20;;
26718;SDS011;14326;50.794;6.060;2024-03-08T10:50:35;27.27;;;11.73;;
26718;SDS011;14326;50.794;6.060;2024-03-08T10:53:04;27.30;;;11.60;;
26718;SDS011;14326;50.794;6.060;2024-03-08T10:55:34;25.33;;;10.95;;
26718;SDS011;14326;50.794;6.060;2024-03-08T10:58:03;25.45;;;11.05;;
26718;SDS011;14326;50.794;6.060;2024-03-08T11:00:31;26.05;;;11.10;;
26718;SDS011;14326;50.794;6.060;2024-03-08T11:02:58;28.08;;;11.00;;
26718;SDS011;14326;50.794;6.060;2024-03-08T11:05:32;25.58;;;11.88;;
26718;SDS011;14326;50.794;6.060;2024-03-08T11:08:03;25.50;;;10.68;;
26718;SDS011;14326;50.794;6.060;2024-03-08T11:10:31;25.50;;;11.07;;
26718;SDS011;14326;50.794;6.060;2024-03-08T11:12:59;24.52;;;10.35;;
26718;SDS011;14326;50.794;6.060;2024-03-08T11:15:27;25.40;;;11.35;;
26718;SDS011;14326;50.794;6.060;2024-03-08T11:17:57;25.20;;;10.80;;
26718;SDS011;14326;50.794;6.060;2024-03-08T11:20:26;25.63;;;9.93;;
26718;SDS011;14326;50.794;6.060;2024-03-08T11:22:54;23.80;;;10.00;;
26718;SDS011;14326;50.794;6.060;2024-03-08T11:25:36;24.00;;;10.77;;
26718;SDS011;14326;50.794;6.060;2024-03-08T11:28:07;24.08;;;9.93;;
26718;SDS011;14326;50.794;6.060;2024-03-08T11:30:34;22.48;;;9.75;;
26718;SDS011;14326;50.794;6.060;2024-03-08T11:33:03;23.48;;;9.77;;
26718;SDS011;14326;50.794;6.060;2024-03-08T11:35:30;24.50;;;9.60;;
26718;SDS011;14326;50.794;6.060;2024-03-08T11:37:57;25.58;;;10.25;;
26718;SDS011;14326;50.794;6.060;2024-03-08T11:40:25;28.98;;;9.85;;
26718;SDS011;14326;50.794;6.060;2024-03-08T11:42:54;24.50;;;9.52;;
26718;SDS011;14326;50.794;6.060;2024-03-08T11:45:20;24.27;;;10.57;;
26718;SDS011;14326;50.794;6.060;2024-03-08T11:47:47;24.67;;;10.15;;
26718;SDS011;14326;50.794;6.060;2024-03-08T11:50:14;23.77;;;9.75;;
26718;SDS011;14326;50.794;6.060;2024-03-08T11:52:41;23.15;;;9.75;;
26718;SDS011;14326;50.794;6.060;2024-03-08T11:55:09;22.92;;;9.85;;
26718;SDS011;14326;50.794;6.060;2024-03-08T11:57:37;26.63;;;11.07;;
26718;SDS011;14326;50.794;6.060;2024-03-08T12:00:06;22.50;;;10.30;;
26718;SDS011;14326;50.794;6.060;2024-03-08T12:02:59;22.83;;;10.30;;
26718;SDS011;14326;50.794;6.060;2024-03-08T12:05:27;19.52;;;7.80;;
26718;SDS011;14326;50.794;6.060;2024-03-08T12:07:56;22.75;;;9.50;;
26718;SDS011;14326;50.794;6.060;2024-03-08T12:10:24;25.02;;;10.02;;
26718;SDS011;14326;50.794;6.060;2024-03-08T12:12:51;24.20;;;10.00;;
26718;SDS011;14326;50.794;6.060;2024-03-08T12:15:21;24.75;;;9.50;;
26718;SDS011;14326;50.794;6.060;2024-03-08T12:17:48;26.20;;;9.48;;
26718;SDS011;14326;50.794;6.060;2024-03-08T12:20:17;24.85;;;10.00;;
26718;SDS011;14326;50.794;6.060;2024-03-08T12:22:47;24.15;;;9.07;;
26718;SDS011;14326;50.794;6.060;2024-03-08T12:25:14;24.20;;;10.10;;
26718;SDS011;14326;50.794;6.060;2024-03-08T12:27:41;25.13;;;10.40;;
26718;SDS011;14326;50.794;6.060;2024-03-08T12:30:20;24.13;;;10.23;;
26718;SDS011;14326;50.794;6.060;2024-03-08T12:32:50;22.25;;;9.40;;
26718;SDS011;14326;50.794;6.060;2024-03-08T12:35:19;22.75;;;9.35;;
26718;SDS011;14326;50.794;6.060;2024-03-08T12:37:47;23.27;;;10.88;;
26718;SDS011;14326;50.794;6.060;2024-03-08T12:40:18;21.55;;;9.65;;
26718;SDS011;14326;50.794;6.060;2024-03-08T12:42:46;23.83;;;10.15;;
26718;SDS011;14326;50.794;6.060;2024-03-08T12:45:13;23.98;;;9.60;;
26718;SDS011;14326;50.794;6.060;2024-03-08T12:47:42;23.17;;;10.15;;
26718;SDS011;14326;50.794;6.060;2024-03-08T12:50:09;21.95;;;9.38;;
26718;SDS011;14326;50.794;6.060;2024-03-08T12:52:36;24.85;;;10.57;;
26718;SDS011;14326;50.794;6.060;2024-03-08T12:55:03;26.98;;;11.77;;
26718;SDS011;14326;50.794;6.060;2024-03-08T12:57:32;25.77;;;11.52;;
26718;SDS011;14326;50.794;6.060;2024-03-08T13:00:00;27.55;;;11.63;;
26718;SDS011;14326;50.794;6.060;2024-03-08T13:02:27;24.52;;;10.63;;
26718;SDS011;14326;50.794;6.060;2024-03-08T13:04:55;23.90;;;10.32;;
26718;SDS011;14326;50.794;6.060;2024-03-08T13:07:22;25.92;;;11.50;;
26718;SDS011;14326;50.794;6.060;2024-03-08T13:09:50;21.90;;;10.02;;
26718;SDS011;14326;50.794;6.060;2024-03-08T13:12:17;22.63;;;8.90;;
26718;SDS011;14326;50.794;6.060;2024-03-08T13:14:45;25.17;;;11.32;;
26718;SDS011;14326;50.794;6.060;2024-03-08T13:17:11;25.73;;;10.20;;
26718;SDS011;14326;50.794;6.060;2024-03-08T13:19:38;24.52;;;10.65;;
26718;SDS011;14326;50.794;6.060;2024-03-08T13:22:06;26.30;;;12.18;;
26718;SDS011;14326;50.794;6.060;2024-03-08T13:24:37;27.35;;;11.60;;
26718;SDS011;14326;50.794;6.060;2024-03-08T13:27:03;26.38;;;12.05;;
26718;SDS011;14326;50.794;6.060;2024-03-08T13:29:41;26.35;;;11.00;;
26718;SDS011;14326;50.794;6.060;2024-03-08T13:32:08;25.40;;;11.90;;
26718;SDS011;14326;50.794;6.060;2024-03-08T13:34:37;27.02;;;10.68;;
26718;SDS011;14326;50.794;6.060;2024-03-08T13:37:03;27.20;;;11.82;;
26718;SDS011;14326;50.794;6.060;2024-03-08T13:39:32;27.00;;;12.50;;
26718;SDS011;14326;50.794;6.060;2024-03-08T13:42:05;26.23;;;12.07;;
26718;SDS011;14326;50.794;6.060;2024-03-08T13:44:34;27.60;;;12.45;;
26718;SDS011;14326;50.794;6.060;2024-03-08T13:47:01;26.95;;;12.00;;
26718;SDS011;14326;50.794;6.060;2024-03-08T13:49:29;26.23;;;11.05;;
26718;SDS011;14326;50.794;6.060;2024-03-08T13:51:56;23.10;;;11.10;;
26718;SDS011;14326;50.794;6.060;2024-03-08T13:54:24;25.73;;;11.43;;
26718;SDS011;14326;50.794;6.060;2024-03-08T13:56:53;25.88;;;11.25;;
26718;SDS011;14326;50.794;6.060;2024-03-08T13:59:20;24.15;;;10.52;;
26718;SDS011;14326;50.794;6.060;2024-03-08T14:01:47;24.90;;;11.02;;
26718;SDS011;14326;50.794;6.060;2024-03-08T14:04:15;23.88;;;10.77;;
26718;SDS011;14326;50.794;6.060;2024-03-08T14:06:43;25.58;;;10.23;;
26718;SDS011;14326;50.794;6.060;2024-03-08T14:09:10;28.00;;;11.25;;
26718;SDS011;14326;50.794;6.060;2024-03-08T14:11:41;24.77;;;10.57;;
26718;SDS011;14326;50.794;6.060;2024-03-08T14:14:10;31.80;;;10.57;;
26718;SDS011;14326;50.794;6.060;2024-03-08T14:16:37;23.20;;;9.93;;
26718;SDS011;14326;50.794;6.060;2024-03-08T14:19:04;23.15;;;10.23;;
26718;SDS011;14326;50.794;6.060;2024-03-08T14:21:31;24.80;;;11.38;;
26718;SDS011;14326;50.794;6.060;2024-03-08T14:23:58;25.10;;;10.30;;
26718;SDS011;14326;50.794;6.060;2024-03-08T14:26:25;22.45;;;10.00;;
26718;SDS011;14326;50.794;6.060;2024-03-08T14:28:52;28.45;;;10.68;;